Time;durP1;ratioP1;P1;durP2;ratioP2;P2;SDS_P1;SDS_P2;PMS_P1;PMS_P2;Temp;Humidity;BMP_temperature;BMP_pressure;BME280_temperature;BME280_humidity;BME280_pressure;Samples;Min_cycle;Max_cycle;Signal;HPM_P1;HPM_P2
2021/06/18 00:00:00;;;;;;;;;6.75;6.75;;;;;30.30;44.95;100814.00;4941020;28;46481;-45
2021/06/18 00:02:26;;;;;;;;;4.25;4.25;;;;;30.28;44.46;100828.09;4941089;28;45511;-46
2021/06/18 00:04:51;;;;;;;;;5.75;5.75;;;;;30.26;44.90;100815.56;4940629;28;45246;-50
2021/06/18 00:07:17;;;;;;;;;4.25;4.25;;;;;30.24;44.54;100809.38;4940748;28;45305;-48
2021/06/18 00:09:42;;;;;;;;;5.50;4.50;;;;;30.26;44.81;100810.00;4940755;28;46538;-46
2021/06/18 00:12:09;;;;;;;;;4.75;4.75;;;;;30.26;44.86;100793.41;4940498;28;45277;-47
2021/06/18 00:14:34;;;;;;;;;6.25;6.00;;;;;30.25;44.88;100803.59;4940755;28;45212;-46
2021/06/18 00:17:00;;;;;;;;;5.00;3.75;;;;;30.25;44.75;100809.16;4940832;28;45501;-47
2021/06/18 00:19:25;;;;;;;;;5.00;5.00;;;;;30.25;45.00;100813.84;4939829;28;46430;-51
2021/06/18 00:21:51;;;;;;;;;5.50;4.75;;;;;30.23;44.71;100793.84;4939927;28;45479;-50
2021/06/18 00:24:17;;;;;;;;;4.00;4.00;;;;;30.24;44.81;100790.00;4940718;28;45395;-47
2021/06/18 00:26:42;;;;;;;;;4.00;4.00;;;;;30.22;44.52;100806.00;4940691;28;45521;-46
2021/06/18 00:29:08;;;;;;;;;3.25;3.25;;;;;30.22;44.82;100800.47;4940651;28;45518;-46
2021/06/18 00:31:34;;;;;;;;;5.75;5.75;;;;;30.20;44.42;100797.06;4939180;28;45449;-46
2021/06/18 00:33:59;;;;;;;;;4.00;4.00;;;;;30.22;45.05;100803.22;4940828;28;45443;-45
2021/06/18 00:36:25;;;;;;;;;7.50;6.50;;;;;30.18;44.69;100809.22;4938631;28;45490;-44
2021/06/18 00:38:51;;;;;;;;;4.50;4.50;;;;;30.21;44.84;100813.44;4938878;28;46957;-44
2021/06/18 00:41:16;;;;;;;;;5.25;5.25;;;;;30.17;44.95;100802.00;4940393;28;45471;-45
2021/06/18 00:43:43;;;;;;;;;4.75;3.00;;;;;30.21;44.84;100798.78;4939938;28;45447;-44
2021/06/18 00:46:08;;;;;;;;;7.00;4.75;;;;;30.18;44.80;100786.25;4940352;28;45401;-47
2021/06/18 00:48:35;;;;;;;;;4.25;3.50;;;;;30.18;45.07;100789.00;4939127;28;46491;-49
2021/06/18 00:51:01;;;;;;;;;5.00;5.00;;;;;30.15;44.72;100786.69;4937984;28;45831;-44
2021/06/18 00:53:27;;;;;;;;;6.50;4.75;;;;;30.15;44.67;100797.75;4940293;28;45400;-46
2021/06/18 00:55:52;;;;;;;;;4.00;4.00;;;;;30.13;44.60;100792.44;4940124;28;45597;-45
2021/06/18 00:58:18;;;;;;;;;5.00;4.00;;;;;30.13;45.02;100789.66;4939735;28;45349;-45
2021/06/18 01:00:45;;;;;;;;;4.25;4.25;;;;;30.15;44.80;100792.22;4940093;28;45449;-49
2021/06/18 01:03:11;;;;;;;;;5.50;5.50;;;;;30.11;45.01;100783.53;4940111;28;45241;-46
2021/06/18 01:05:37;;;;;;;;;3.75;3.75;;;;;30.12;44.85;100787.13;4939900;28;45250;-48
2021/06/18 01:08:17;;;;;;;;;3.75;3.75;;;;;30.11;44.94;100785.44;4939897;28;45376;-44
2021/06/18 01:10:59;;;;;;;;;4.25;4.25;;;;;30.09;44.76;100785.69;4939262;28;45656;-45
2021/06/18 01:13:49;;;;;;;;;3.75;3.75;;;;;30.10;44.81;100783.75;4938798;28;45356;-48
2021/06/18 01:16:32;;;;;;;;;4.50;4.50;;;;;30.09;44.92;100785.69;4939528;28;45372;-45
2021/06/18 01:19:22;;;;;;;;;3.50;3.50;;;;;30.08;44.83;100786.75;4939528;28;45662;-49
2021/06/18 01:21:58;;;;;;;;;3.75;3.75;;;;;30.08;44.95;100785.91;4920523;28;45449;-48
2021/06/18 01:25:00;;;;;;;;;3.75;3.75;;;;;30.06;45.01;100783.38;4931953;28;45524;-46
2021/06/18 01:27:39;;;;;;;;;5.25;4.50;;;;;30.06;44.91;100776.97;4920634;28;45316;-50
2021/06/18 01:30:12;;;;;;;;;2.50;2.50;;;;;30.05;45.33;100759.53;4920400;28;46360;-49
2021/06/18 01:32:43;;;;;;;;;6.00;6.00;;;;;30.03;44.71;100747.84;4920571;28;45506;-50
2021/06/18 01:35:13;;;;;;;;;4.25;4.25;;;;;30.02;44.95;100746.13;4920283;28;45458;-48
2021/06/18 01:37:42;;;;;;;;;5.25;4.50;;;;;30.02;44.85;100749.78;4920476;28;45295;-49
2021/06/18 01:40:09;;;;;;;;;4.25;3.50;;;;;30.01;44.81;100747.22;4920318;28;46602;-47
2021/06/18 01:42:39;;;;;;;;;2.00;2.00;;;;;30.01;45.38;100749.97;4921351;28;45464;-49
2021/06/18 01:45:07;;;;;;;;;4.00;4.00;;;;;29.99;44.98;100746.59;4939594;28;45359;-46
2021/06/18 01:47:35;;;;;;;;;4.00;4.00;;;;;30.00;45.17;100742.75;4939140;28;45325;-47
2021/06/18 01:50:02;;;;;;;;;3.25;3.25;;;;;30.00;45.19;100737.22;4937753;28;45928;-48
2021/06/18 01:52:30;;;;;;;;;3.50;3.50;;;;;29.99;45.09;100727.22;4939393;28;45249;-46
2021/06/18 01:54:58;;;;;;;;;2.75;2.75;;;;;29.98;45.01;100725.53;4939283;28;45277;-48
2021/06/18 01:57:24;;;;;;;;;4.50;3.75;;;;;29.97;44.98;100729.41;4939446;28;45325;-46
2021/06/18 01:59:53;;;;;;;;;3.00;3.00;;;;;29.97;45.07;100721.91;4939027;28;46537;-49
2021/06/18 02:02:20;;;;;;;;;4.00;3.75;;;;;29.96;45.18;100716.63;4938970;28;45528;-45
2021/06/18 02:04:47;;;;;;;;;3.00;3.00;;;;;29.96;45.30;100716.63;4938187;28;45562;-47
2021/06/18 02:07:14;;;;;;;;;4.25;4.00;;;;;29.94;45.25;100710.44;4939347;28;45601;-48
2021/06/18 02:09:43;;;;;;;;;4.75;4.75;;;;;29.95;45.03;100709.41;4958105;28;46428;-47
2021/06/18 02:12:10;;;;;;;;;3.00;3.00;;;;;29.94;45.11;100704.91;4958384;28;45539;-49
2021/06/18 02:14:38;;;;;;;;;3.00;2.00;;;;;29.93;45.51;100705.97;4944194;28;45423;-47
2021/06/18 02:17:05;;;;;;;;;2.25;2.25;;;;;29.94;44.88;100700.19;4938590;28;45433;-47
2021/06/18 02:19:33;;;;;;;;;5.00;3.00;;;;;29.93;45.21;100692.16;4938603;28;46288;-47
2021/06/18 02:21:59;;;;;;;;;4.00;3.00;;;;;29.92;45.22;100682.16;4938960;28;45253;-50
2021/06/18 02:24:29;;;;;;;;;3.00;2.00;;;;;29.92;45.31;100682.16;4939023;28;45348;-46
2021/06/18 02:26:55;;;;;;;;;3.25;3.25;;;;;29.92;45.33;100691.28;4938872;28;45429;-48
2021/06/18 02:29:21;;;;;;;;;3.50;2.75;;;;;29.88;45.38;100685.38;4938847;28;45562;-50
2021/06/18 02:31:49;;;;;;;;;3.00;3.00;;;;;29.91;44.89;100692.34;4938574;28;45368;-45
2021/06/18 02:34:15;;;;;;;;;3.00;3.00;;;;;29.88;45.24;100690.06;4938766;28;45242;-46
2021/06/18 02:36:41;;;;;;;;;3.25;3.00;;;;;29.90;45.15;100689.81;4938900;28;45477;-48
2021/06/18 02:39:09;;;;;;;;;3.00;3.00;;;;;29.90;45.31;100689.81;4938428;28;46474;-48
2021/06/18 02:41:35;;;;;;;;;2.50;1.75;;;;;29.86;45.42;100690.28;4938551;28;45300;-46
2021/06/18 02:44:02;;;;;;;;;3.00;2.00;;;;;29.88;45.07;100696.44;4938316;28;45187;-45
2021/06/18 02:47:06;;;;;;;;;2.25;2.25;;;;;29.87;45.14;100700.28;4938305;28;45332;-45
2021/06/18 02:49:46;;;;;;;;;3.50;2.25;;;;;29.85;45.13;100688.59;4938585;28;46204;-48
2021/06/18 02:52:28;;;;;;;;;3.25;3.25;;;;;29.84;45.29;100688.81;4937254;28;45391;-48
2021/06/18 02:55:08;;;;;;;;;1.75;1.75;;;;;29.85;45.13;100682.22;4938469;28;45417;-50
2021/06/18 02:57:54;;;;;;;;;2.75;2.75;;;;;29.84;45.51;100688.81;4938430;28;45440;-46
2021/06/18 03:00:21;;;;;;;;;1.75;1.75;;;;;29.82;45.26;100677.13;4938098;28;45972;-49
2021/06/18 03:02:56;;;;;;;;;0.75;0.75;;;;;29.82;45.29;100682.66;4938390;28;45418;-48
2021/06/18 03:05:24;;;;;;;;;3.00;2.00;;;;;29.82;45.35;100691.84;4919222;28;45180;-47
2021/06/18 03:07:57;;;;;;;;;2.00;2.00;;;;;29.83;45.25;100678.84;4918075;28;45219;-46
2021/06/18 03:10:25;;;;;;;;;2.00;2.00;;;;;29.79;45.52;100674.81;4918590;28;46430;-46
2021/06/18 03:13:00;;;;;;;;;1.50;1.00;;;;;29.79;45.35;100670.16;4920351;28;45288;-47
2021/06/18 03:15:27;;;;;;;;;2.75;0.75;;;;;29.79;45.67;100670.16;4937970;28;45332;-46
2021/06/18 03:17:54;;;;;;;;;3.50;2.00;;;;;29.80;45.17;100673.75;4938225;28;45384;-46
2021/06/18 03:20:21;;;;;;;;;2.50;2.00;;;;;29.78;45.44;100668.47;4937802;28;45418;-45
2021/06/18 03:22:57;;;;;;;;;1.50;1.50;;;;;29.78;45.59;100671.22;4938176;28;45493;-48
2021/06/18 03:25:25;;;;;;;;;1.00;1.00;;;;;29.77;45.56;100675.06;4938264;28;45443;-48
2021/06/18 03:27:53;;;;;;;;;4.50;3.00;;;;;29.77;45.25;100686.13;4938073;28;45305;-45
2021/06/18 03:30:19;;;;;;;;;2.75;2.00;;;;;29.78;45.63;100675.91;4937765;28;46218;-47
2021/06/18 03:32:47;;;;;;;;;2.50;2.50;;;;;29.75;45.22;100677.22;4937871;28;45383;-45
2021/06/18 03:35:14;;;;;;;;;1.00;1.00;;;;;29.76;45.46;100687.22;4937958;28;45462;-49
2021/06/18 03:37:41;;;;;;;;;2.75;2.00;;;;;29.76;45.47;100692.75;4938036;28;45374;-45
2021/06/18 03:40:07;;;;;;;;;2.75;1.75;;;;;29.75;45.32;100727.00;4936717;28;45541;-47
2021/06/18 03:42:35;;;;;;;;;1.00;1.00;;;;;29.74;45.44;100764.06;4937651;28;45430;-46
2021/06/18 03:45:03;;;;;;;;;2.75;2.00;;;;;29.76;45.54;100770.22;4937533;28;45205;-47
2021/06/18 03:47:29;;;;;;;;;1.00;1.00;;;;;29.75;45.73;100745.56;4937633;28;45283;-45
2021/06/18 03:49:56;;;;;;;;;2.25;2.00;;;;;29.72;45.59;100722.78;4937626;28;45421;-49
2021/06/18 03:52:22;;;;;;;;;1.00;1.00;;;;;29.72;45.30;100733.88;4937649;28;45665;-47
2021/06/18 03:54:47;;;;;;;;;2.00;2.00;;;;;29.72;45.59;100736.63;4937286;28;45530;-47
2021/06/18 03:57:17;;;;;;;;;1.25;1.25;;;;;29.71;45.29;100731.31;4937796;28;45265;-46
2021/06/18 03:59:43;;;;;;;;;2.00;2.00;;;;;29.71;45.59;100734.06;4937372;28;46260;-47
2021/06/18 04:02:12;;;;;;;;;1.50;1.50;;;;;29.72;45.49;100739.41;4937617;28;45396;-46
2021/06/18 04:04:39;;;;;;;;;1.00;1.00;;;;;29.70;45.79;100721.31;4937364;28;45359;-48
2021/06/18 04:07:09;;;;;;;;;1.00;1.00;;;;;29.68;45.55;100720.72;4937701;28;45326;-47
2021/06/18 04:09:39;;;;;;;;;1.00;1.00;;;;;29.69;45.32;100708.53;4937527;28;46071;-48
2021/06/18 04:12:09;;;;;;;;;2.00;2.00;;;;;29.68;45.78;100701.34;4937567;28;45280;-49
2021/06/18 04:14:35;;;;;;;;;2.00;2.00;;;;;29.67;45.24;100694.13;4936120;28;45564;-49
2021/06/18 04:17:04;;;;;;;;;3.25;2.00;;;;;29.68;45.45;100693.06;4937534;28;45407;-48
2021/06/18 04:19:31;;;;;;;;;1.00;1.00;;;;;29.68;45.38;100712.41;4937260;28;45558;-45
2021/06/18 04:22:00;;;;;;;;;1.25;1.25;;;;;29.68;45.92;100720.72;4937325;28;45424;-45
2021/06/18 04:24:26;;;;;;;;;2.00;2.00;;;;;29.68;45.43;100712.41;4939930;28;45333;-49
2021/06/18 04:26:51;;;;;;;;;1.00;1.00;;;;;29.68;45.61;100715.19;4939654;28;45399;-46
2021/06/18 04:29:17;;;;;;;;;1.00;1.00;;;;;29.67;45.71;100713.50;4939763;28;46491;-48
2021/06/18 04:31:44;;;;;;;;;1.00;1.00;;;;;29.67;45.61;100707.97;4940421;28;45356;-47
2021/06/18 04:34:10;;;;;;;;;1.75;1.00;;;;;29.66;46.04;100697.97;4940909;28;45296;-46
2021/06/18 04:36:37;;;;;;;;;1.00;1.00;;;;;29.65;45.68;100686.03;4940610;28;45303;-46
2021/06/18 04:39:04;;;;;;;;;1.25;1.00;;;;;29.64;45.63;100678.81;4940314;28;46077;-45
2021/06/18 04:41:30;;;;;;;;;3.00;1.25;;;;;29.67;45.54;100694.97;4940341;28;45496;-48
2021/06/18 04:43:55;;;;;;;;;1.00;1.00;;;;;29.65;45.53;100690.72;4939814;28;45820;-48
2021/06/18 04:46:21;;;;;;;;;1.00;1.00;;;;;29.65;45.69;100694.34;4939983;28;45428;-46
2021/06/18 04:48:46;;;;;;;;;2.00;2.00;;;;;29.65;45.61;100685.19;4939480;28;45434;-45
2021/06/18 04:51:15;;;;;;;;;1.00;1.00;;;;;29.66;45.77;100678.59;4939162;28;45495;-47
2021/06/18 04:53:41;;;;;;;;;2.25;1.00;;;;;29.66;45.77;100689.66;4940250;28;45375;-45
2021/06/18 04:56:07;;;;;;;;;1.50;1.50;;;;;29.65;45.58;100679.66;4940117;28;45389;-47
2021/06/18 04:58:32;;;;;;;;;3.00;2.00;;;;;29.66;46.16;100675.84;4938620;28;45793;-48
2021/06/18 05:00:58;;;;;;;;;1.00;1.00;;;;;29.64;45.54;100680.75;4940245;28;45304;-45
2021/06/18 05:03:23;;;;;;;;;2.00;1.00;;;;;29.65;45.78;100690.72;4939639;28;45185;-47
2021/06/18 05:05:49;;;;;;;;;1.00;1.00;;;;;29.65;45.84;100687.97;4940208;28;45470;-47
2021/06/18 05:08:14;;;;;;;;;3.00;1.00;;;;;29.65;46.11;100679.66;4939938;28;45412;-49
2021/06/18 05:10:40;;;;;;;;;4.00;3.00;;;;;29.64;45.63;100678.81;4939723;28;45467;-51
2021/06/18 05:13:05;;;;;;;;;0.75;0.75;;;;;29.64;45.99;100678.81;4940145;28;45460;-44
2021/06/18 05:15:31;;;;;;;;;2.00;2.00;;;;;29.64;46.17;100676.03;4939814;28;45389;-45
2021/06/18 05:17:56;;;;;;;;;2.00;2.00;;;;;29.66;45.80;100687.72;4939669;28;46611;-46
2021/06/18 05:20:22;;;;;;;;;2.00;1.75;;;;;29.65;45.74;100674.97;4939589;28;45424;-45
2021/06/18 05:22:48;;;;;;;;;1.25;1.25;;;;;29.66;45.74;100684.13;4939847;28;45327;-48
2021/06/18 05:25:15;;;;;;;;;2.00;2.00;;;;;29.66;45.88;100684.97;4939566;28;45391;-47
2021/06/18 05:27:41;;;;;;;;;3.00;3.00;;;;;29.64;45.84;100681.56;4939725;28;45508;-45
2021/06/18 05:30:08;;;;;;;;;3.50;2.50;;;;;29.67;46.13;100692.19;4938818;28;45529;-48
2021/06/18 05:32:34;;;;;;;;;2.50;2.00;;;;;29.65;45.99;100685.19;4939690;28;45262;-46
2021/06/18 05:34:59;;;;;;;;;2.00;2.00;;;;;29.66;46.04;100701.56;4938792;28;45305;-49
2021/06/18 05:37:25;;;;;;;;;1.75;1.50;;;;;29.65;46.00;100694.34;4939247;28;45410;-47
2021/06/18 05:39:50;;;;;;;;;2.50;2.50;;;;;29.65;46.20;100686.03;4939338;28;45360;-46
2021/06/18 05:42:16;;;;;;;;;1.00;1.00;;;;;29.65;46.34;100685.19;4939527;28;45270;-49
2021/06/18 05:44:41;;;;;;;;;2.00;2.00;;;;;29.65;45.93;100685.19;4939187;28;45373;-47
2021/06/18 05:47:07;;;;;;;;;3.00;2.00;;;;;29.67;46.19;100685.81;4939268;28;45281;-49
2021/06/18 05:49:32;;;;;;;;;1.75;1.75;;;;;29.67;46.16;100691.34;4938032;28;45349;-46
2021/06/18 05:51:58;;;;;;;;;3.00;3.00;;;;;29.67;45.72;100683.88;4939521;28;45345;-45
2021/06/18 05:54:25;;;;;;;;;2.00;2.00;;;;;29.68;45.92;100682.81;4939194;28;45260;-45
2021/06/18 05:56:51;;;;;;;;;2.75;2.75;;;;;29.67;46.13;100683.88;4937681;28;47150;-49
2021/06/18 05:59:16;;;;;;;;;2.25;2.25;;;;;29.66;46.31;100684.13;4938995;28;45391;-46
2021/06/18 06:04:19;;;;;;;;;1.25;1.25;;;;;29.68;46.00;100693.06;5572441;23;46552;-50
2021/06/18 06:06:44;;;;;;;;;2.00;2.00;;;;;29.68;46.25;100693.88;4999899;22;45639;-48
2021/06/18 06:09:10;;;;;;;;;1.75;1.75;;;;;29.66;46.04;100692.44;4924491;28;45256;-49
2021/06/18 06:11:36;;;;;;;;;2.00;2.00;;;;;29.69;45.96;100697.47;4936022;28;45314;-48
2021/06/18 06:14:03;;;;;;;;;1.50;1.50;;;;;29.69;46.03;100705.78;4938292;28;45253;-45
2021/06/18 06:16:30;;;;;;;;;2.25;2.00;;;;;29.70;46.08;100699.19;4938795;28;45346;-46
2021/06/18 06:18:55;;;;;;;;;2.25;2.25;;;;;29.68;46.14;100699.41;4938873;28;45248;-47
2021/06/18 06:21:22;;;;;;;;;4.00;3.00;;;;;29.69;45.99;100697.47;4938856;28;45336;-47
2021/06/18 06:23:48;;;;;;;;;4.50;3.00;;;;;29.71;45.95;100700.88;4934407;28;45486;-46
2021/06/18 06:26:14;;;;;;;;;2.00;2.00;;;;;29.68;46.00;100696.66;4938351;28;46169;-48
2021/06/18 06:28:39;;;;;;;;;3.00;3.00;;;;;29.69;46.13;100692.81;4938824;28;45339;-49
2021/06/18 06:31:05;;;;;;;;;4.00;3.50;;;;;29.70;46.28;100696.41;4938749;28;45429;-43
2021/06/18 06:33:31;;;;;;;;;3.50;2.50;;;;;29.71;46.01;100692.56;4938976;28;45399;-45
2021/06/18 06:35:57;;;;;;;;;4.00;4.00;;;;;29.72;46.33;100683.19;4938444;28;45225;-45
2021/06/18 06:38:22;;;;;;;;;3.25;3.25;;;;;29.71;45.43;100689.81;4938940;28;45644;-45
2021/06/18 06:40:49;;;;;;;;;3.75;3.75;;;;;29.70;46.40;100688.09;4938687;28;45312;-46
2021/06/18 06:43:15;;;;;;;;;4.00;2.25;;;;;29.72;45.85;100689.59;4938730;28;45412;-45
2021/06/18 06:45:40;;;;;;;;;5.25;4.00;;;;;29.71;46.24;100693.44;4937696;28;46345;-47
2021/06/18 06:48:07;;;;;;;;;4.00;3.00;;;;;29.73;45.94;100684.88;4938702;28;45382;-46
2021/06/18 06:50:32;;;;;;;;;2.75;2.75;;;;;29.74;46.06;100696.81;4938418;28;45458;-44
2021/06/18 06:52:58;;;;;;;;;4.00;3.00;;;;;29.73;45.70;100693.19;4938489;28;45442;-47
2021/06/18 06:55:23;;;;;;;;;4.25;4.25;;;;;29.72;45.90;100695.13;4938413;28;45397;-46
2021/06/18 06:57:51;;;;;;;;;3.00;3.00;;;;;29.74;45.96;100703.19;4938460;28;45495;-45
2021/06/18 07:00:16;;;;;;;;;5.00;5.00;;;;;29.72;45.76;100689.59;4938657;28;45320;-45
2021/06/18 07:02:43;;;;;;;;;3.00;3.00;;;;;29.75;46.09;100702.13;4938060;28;45327;-45
2021/06/18 07:05:09;;;;;;;;;2.75;2.75;;;;;29.76;46.04;100709.34;4937763;28;45411;-45
2021/06/18 07:07:36;;;;;;;;;3.00;3.00;;;;;29.76;46.14;100708.50;4918690;28;45436;-47
2021/06/18 07:10:03;;;;;;;;;4.25;3.00;;;;;29.77;46.12;100690.81;4919241;28;45394;-46
2021/06/18 07:12:29;;;;;;;;;5.75;4.25;;;;;29.77;45.73;100686.13;4917612;28;45481;-45
2021/06/18 07:14:56;;;;;;;;;4.75;4.75;;;;;29.80;45.88;100707.81;4918658;28;46279;-44
2021/06/18 07:17:25;;;;;;;;;4.00;4.00;;;;;29.83;46.03;100723.94;4918935;28;45254;-46
2021/06/18 07:19:54;;;;;;;;;3.50;2.50;;;;;29.83;46.22;100732.25;4918735;28;45246;-46
2021/06/18 07:22:21;;;;;;;;;5.00;5.00;;;;;29.83;45.96;100717.56;4919015;28;45482;-47
2021/06/18 07:24:48;;;;;;;;;5.00;4.00;;;;;29.82;46.17;100716.75;4918758;28;46073;-46
2021/06/18 07:27:15;;;;;;;;;5.75;4.75;;;;;29.85;46.20;100726.50;4917505;28;45582;-48
2021/06/18 07:29:42;;;;;;;;;6.00;6.00;;;;;29.84;46.28;100722.88;4918568;28;45497;-44
2021/06/18 07:32:09;;;;;;;;;5.75;5.75;;;;;29.80;46.49;100727.19;4932046;28;45597;-50
2021/06/18 07:34:35;;;;;;;;;8.25;7.00;;;;;29.78;46.67;100718.25;4937329;28;46107;-45
2021/06/18 07:37:01;;;;;;;;;6.50;6.00;;;;;29.78;47.01;100731.25;4936221;28;45491;-44
2021/06/18 07:39:27;;;;;;;;;7.25;6.50;;;;;29.76;46.89;100722.34;4937662;28;45241;-49
2021/06/18 07:41:52;;;;;;;;;6.75;5.00;;;;;29.69;46.60;100725.16;4921644;28;45408;-46
2021/06/18 07:44:18;;;;;;;;;6.00;5.50;;;;;29.54;46.88;100734.69;4918465;28;46072;-45
2021/06/18 07:46:43;;;;;;;;;7.00;6.75;;;;;29.44;47.21;100731.56;4918273;28;45186;-46
2021/06/18 07:49:09;;;;;;;;;7.00;7.00;;;;;29.46;47.22;100734.09;4922091;28;45270;-45
2021/06/18 07:51:35;;;;;;;;;7.00;6.00;;;;;29.47;46.95;100727.50;4923917;28;45554;-46
2021/06/18 07:54:01;;;;;;;;;6.75;6.50;;;;;29.42;47.27;100723.50;4918137;28;45523;-44
2021/06/18 07:56:32;;;;;;;;;7.00;6.00;;;;;29.46;46.90;100729.41;4917781;28;45495;-43
2021/06/18 07:58:59;;;;;;;;;8.00;6.75;;;;;29.48;46.73;100738.34;4932042;28;45468;-48
2021/06/18 08:01:27;;;;;;;;;6.50;6.50;;;;;29.32;46.52;100736.09;4937733;28;45522;-43
2021/06/18 08:03:52;;;;;;;;;6.75;6.25;;;;;29.17;46.91;100730.91;4938449;28;45438;-43
2021/06/18 08:06:18;;;;;;;;;4.25;4.25;;;;;29.07;47.19;100715.63;4940130;28;45386;-47
2021/06/18 08:08:44;;;;;;;;;5.00;5.00;;;;;28.99;47.34;100715.94;4940437;28;45482;-47
2021/06/18 08:11:10;;;;;;;;;6.00;6.00;;;;;29.00;47.84;100717.63;4940576;28;45407;-47
2021/06/18 08:13:36;;;;;;;;;8.25;7.00;;;;;28.97;47.57;100712.53;4940022;28;45429;-46
2021/06/18 08:16:03;;;;;;;;;7.75;7.75;;;;;28.96;48.05;100720.00;4932771;28;45352;-46
2021/06/18 08:18:29;;;;;;;;;8.25;8.25;;;;;28.95;48.00;100712.78;4921359;28;45237;-44
2021/06/18 08:20:55;;;;;;;;;8.00;8.00;;;;;28.88;48.10;100713.88;4930550;28;45375;-44
2021/06/18 08:23:21;;;;;;;;;7.50;7.50;;;;;28.85;48.21;100708.78;4940250;28;45447;-48
2021/06/18 08:25:49;;;;;;;;;7.00;6.00;;;;;28.84;48.16;100713.47;4939928;28;45403;-45
2021/06/18 08:28:15;;;;;;;;;7.00;6.25;;;;;28.73;48.03;100712.28;4940563;28;45284;-48
2021/06/18 08:30:40;;;;;;;;;6.00;6.00;;;;;28.70;48.07;100701.63;4940133;28;45264;-45
2021/06/18 08:33:06;;;;;;;;;6.75;6.25;;;;;28.68;48.14;100701.00;4930256;28;45477;-43
2021/06/18 08:35:32;;;;;;;;;6.00;6.00;;;;;28.57;48.07;100701.69;4919515;28;45817;-49
2021/06/18 08:38:01;;;;;;;;;7.25;7.25;;;;;28.42;48.26;100704.72;4921018;28;46973;-44
2021/06/18 08:40:29;;;;;;;;;6.75;6.75;;;;;28.30;48.47;100697.16;4928109;28;45558;-44
2021/06/18 08:42:54;;;;;;;;;8.50;6.75;;;;;28.28;48.91;100696.50;4940161;28;45288;-48
2021/06/18 08:45:20;;;;;;;;;8.25;6.50;;;;;28.29;48.70;100695.44;4934762;28;45397;-42
2021/06/18 08:47:48;;;;;;;;;6.00;6.00;;;;;28.35;48.71;100696.47;4932138;28;45327;-45
2021/06/18 08:50:16;;;;;;;;;8.25;7.00;;;;;28.30;48.27;100696.31;4940106;28;45255;-48
2021/06/18 08:52:45;;;;;;;;;6.25;6.25;;;;;28.28;47.92;100692.91;4929245;28;46228;-46
2021/06/18 08:55:15;;;;;;;;;6.25;5.00;;;;;28.18;48.36;100685.97;4939754;28;45458;-47
2021/06/18 08:57:41;;;;;;;;;6.75;6.00;;;;;28.20;48.38;100691.25;4940052;28;45410;-49
2021/06/18 09:00:07;;;;;;;;;6.00;5.00;;;;;28.20;48.19;100694.84;4939614;28;45439;-47
2021/06/18 09:02:32;;;;;;;;;6.25;5.00;;;;;28.22;47.86;100702.94;4939766;28;45593;-44
2021/06/18 09:05:10;;;;;;;;;6.00;6.00;;;;;28.19;47.82;100701.44;4925786;28;45446;-45
2021/06/18 09:07:54;;;;;;;;;4.50;4.50;;;;;28.24;47.69;100708.22;4925622;28;45253;-47
2021/06/18 09:10:40;;;;;;;;;4.75;4.75;;;;;28.19;46.88;100714.41;4919860;28;45463;-49
2021/06/18 09:13:20;;;;;;;;;6.50;6.00;;;;;28.08;47.27;100710.34;4930888;28;46259;-50
2021/06/18 09:15:57;;;;;;;;;5.50;4.25;;;;;27.99;47.40;100712.50;4939418;28;45502;-48
2021/06/18 09:18:25;;;;;;;;;4.75;4.00;;;;;28.00;47.53;100708.69;4938447;28;45350;-47
2021/06/18 09:20:53;;;;;;;;;4.00;4.00;;;;;28.02;47.44;100714.00;4938301;28;45584;-50
2021/06/18 09:23:26;;;;;;;;;5.25;5.25;;;;;28.05;47.81;100705.25;4939320;28;45384;-46
2021/06/18 09:26:18;;;;;;;;;6.25;6.00;;;;;28.07;47.87;100711.41;4939373;28;45242;-46
2021/06/18 09:29:10;;;;;;;;;7.25;6.25;;;;;28.17;47.58;100706.34;4939321;28;45451;-46
2021/06/18 09:32:00;;;;;;;;;7.75;6.50;;;;;28.27;47.42;100700.34;4939539;28;45351;-44
2021/06/18 09:34:28;;;;;;;;;4.00;4.00;;;;;28.41;47.09;100692.84;4939266;28;46050;-47
2021/06/18 09:37:12;;;;;;;;;5.00;5.00;;;;;28.49;46.96;100700.88;4939117;28;45468;-47
2021/06/18 09:39:57;;;;;;;;;3.00;3.00;;;;;28.63;46.70;100703.56;4939512;28;45307;-47
2021/06/18 09:42:25;;;;;;;;;4.00;4.00;;;;;28.71;46.66;100706.09;4939207;28;45433;-47
2021/06/18 09:45:10;;;;;;;;;3.50;3.50;;;;;28.79;46.24;100705.84;4938873;28;45332;-48
2021/06/18 09:47:37;;;;;;;;;5.75;5.50;;;;;28.87;46.03;100715.78;4939078;28;45570;-46
2021/06/18 09:50:05;;;;;;;;;4.00;4.00;;;;;28.94;45.98;100707.44;4939097;28;45812;-47
2021/06/18 09:52:33;;;;;;;;;4.75;4.00;;;;;29.01;46.00;100715.69;4938853;28;45439;-50
2021/06/18 09:54:58;;;;;;;;;3.25;3.00;;;;;29.06;45.73;100713.94;4938828;28;45563;-47
2021/06/18 09:57:43;;;;;;;;;3.75;3.75;;;;;29.14;45.89;100709.22;4939051;28;45352;-45
2021/06/18 10:00:12;;;;;;;;;3.00;3.00;;;;;29.19;45.65;100718.53;4939174;28;45343;-49
2021/06/18 10:02:52;;;;;;;;;5.25;5.25;;;;;29.21;45.30;100719.16;4938846;28;45333;-48
2021/06/18 10:05:33;;;;;;;;;4.75;4.50;;;;;29.30;45.25;100721.63;4938616;28;46363;-45
2021/06/18 10:07:59;;;;;;;;;3.25;3.25;;;;;29.34;45.07;100723.75;4933983;28;45395;-49
2021/06/18 10:10:26;;;;;;;;;3.00;3.00;;;;;29.39;44.99;100723.09;4919797;28;45478;-46
2021/06/18 10:12:54;;;;;;;;;5.50;5.00;;;;;29.42;45.00;100728.16;4927046;28;45563;-46
2021/06/18 10:15:23;;;;;;;;;5.00;5.00;;;;;29.46;44.73;100739.63;4938274;28;46255;-45
2021/06/18 10:17:51;;;;;;;;;3.00;3.00;;;;;29.47;44.79;100736.63;4938601;28;45337;-47
2021/06/18 10:20:22;;;;;;;;;3.00;3.00;;;;;29.51;44.72;100732.34;4938919;28;45247;-45
2021/06/18 10:22:57;;;;;;;;;3.25;3.25;;;;;29.54;44.59;100731.03;4938496;28;45374;-48
2021/06/18 10:25:51;;;;;;;;;5.75;4.00;;;;;29.59;44.11;100734.00;4938385;28;45339;-46
2021/06/18 10:28:24;;;;;;;;;3.50;3.50;;;;;29.61;43.98;100731.00;4938268;28;45352;-48
2021/06/18 10:30:53;;;;;;;;;3.50;3.50;;;;;29.65;43.82;100737.75;4938593;28;45411;-47
2021/06/18 10:33:24;;;;;;;;;2.25;2.25;;;;;29.62;43.77;100727.97;4937892;28;45404;-47
2021/06/18 10:38:25;;;;;;;;;3.50;3.50;;;;;29.72;43.39;100733.88;4938329;28;45469;-48
2021/06/18 10:40:50;;;;;;;;;2.00;2.00;;;;;29.74;43.64;100730.84;4938407;28;45504;-49
2021/06/18 10:43:16;;;;;;;;;3.00;3.00;;;;;29.76;43.51;100733.41;4936650;28;45505;-48
2021/06/18 10:45:59;;;;;;;;;4.50;3.00;;;;;29.79;43.12;100742.09;4938309;28;45885;-48
2021/06/18 10:48:50;;;;;;;;;2.00;2.00;;;;;29.84;43.45;100752.47;4938407;28;45360;-48
2021/06/18 10:51:32;;;;;;;;;3.00;1.75;;;;;29.86;43.23;100748.41;4938241;28;45410;-48
2021/06/18 10:54:08;;;;;;;;;3.25;2.00;;;;;29.86;43.42;100745.63;4937872;28;45435;-47
2021/06/18 10:56:46;;;;;;;;;3.00;3.00;;;;;29.91;43.44;100752.41;4937719;28;45394;-49
2021/06/18 10:59:16;;;;;;;;;3.25;1.25;;;;;29.92;43.04;100751.34;4938107;28;45435;-48
2021/06/18 11:01:43;;;;;;;;;4.00;2.50;;;;;29.93;42.88;100753.03;4938074;28;45334;-46
2021/06/18 11:04:09;;;;;;;;;5.00;2.00;;;;;29.91;43.00;100756.00;4938118;28;45268;-47
2021/06/18 11:06:49;;;;;;;;;2.00;2.00;;;;;29.96;43.13;100756.22;4930569;28;46434;-45
2021/06/18 11:09:53;;;;;;;;;3.00;3.00;;;;;29.97;42.97;100765.38;4918786;28;45448;-49
2021/06/18 11:12:25;;;;;;;;;3.00;3.00;;;;;29.97;42.88;100762.63;4956975;28;45384;-46
2021/06/18 11:15:00;;;;;;;;;3.00;3.00;;;;;29.95;42.94;100753.69;4974602;28;45474;-47
2021/06/18 11:17:38;;;;;;;;;1.75;1.75;;;;;29.97;42.87;100755.13;4974346;28;45674;-47
2021/06/18 11:20:06;;;;;;;;;2.50;1.50;;;;;29.99;42.71;100763.19;4970017;28;45530;-44
2021/06/18 11:22:47;;;;;;;;;2.25;2.25;;;;;30.00;42.65;100751.91;4966373;28;45478;-45
2021/06/18 11:25:54;;;;;;;;;2.25;2.25;;;;;30.02;42.49;100762.75;4973764;28;45348;-46
2021/06/18 11:28:20;;;;;;;;;1.75;1.50;;;;;30.03;42.90;100764.44;4934934;28;46418;-44
2021/06/18 11:31:21;;;;;;;;;5.50;2.25;;;;;30.05;42.43;100767.84;4934562;28;45511;-43
2021/06/18 11:33:59;;;;;;;;;3.00;2.50;;;;;30.07;42.91;100767.59;4941114;28;45453;-44
2021/06/18 11:36:25;;;;;;;;;2.50;2.50;;;;;30.09;42.46;100773.75;4941218;28;45488;-46
2021/06/18 11:38:58;;;;;;;;;3.00;3.00;;;;;30.10;42.67;100778.22;4941181;28;45573;-46